sensor_id;sensor_type;location;lat;lon;timestamp;pressure;altitude;pressure_sealevel;temperature;humidity
1371;BME280;14306;49.942;11.570;2023-03-26T15:36:59;96057.09;;;14.61;67.73
1371;BME280;14306;49.942;11.570;2023-03-26T15:39:54;96054.19;;;14.50;69.41
1371;BME280;14306;49.942;11.570;2023-03-26T15:42:52;96061.31;;;15.00;65.90
1371;BME280;14306;49.942;11.570;2023-03-26T15:45:30;96065.25;;;15.28;63.98
1371;BME280;14306;49.942;11.570;2023-03-26T15:48:26;96071.03;;;15.01;65.57
1371;BME280;14306;49.942;11.570;2023-03-26T15:51:07;96069.28;;;14.89;65.86
1371;BME280;14306;49.942;11.570;2023-03-26T15:53:48;96080.72;;;14.53;66.28
1371;BME280;14306;49.942;11.570;2023-03-26T15:56:37;96084.03;;;14.24;70.78
1371;BME280;14306;49.942;11.570;2023-03-26T15:59:21;96078.28;;;13.38;74.42
1371;BME280;14306;49.942;11.570;2023-03-26T16:01:56;96082.09;;;13.18;76.64
1371;BME280;14306;49.942;11.570;2023-03-26T16:04:40;96087.19;;;12.45;76.91
1371;BME280;14306;49.942;11.570;2023-03-26T16:07:39;96086.25;;;12.10;77.98
1371;BME280;14306;49.942;11.570;2023-03-26T16:10:20;96072.47;;;12.15;76.56
1371;BME280;14306;49.942;11.570;2023-03-26T16:13:16;96079.19;;;12.21;76.59
1371;BME280;14306;49.942;11.570;2023-03-26T16:15:52;96051.19;;;11.62;78.67
1371;BME280;14306;49.942;11.570;2023-03-26T16:18:32;96061.66;;;11.75;78.25
1371;BME280;14306;49.942;11.570;2023-03-26T16:24:19;96071.16;;;11.97;76.84
1371;BME280;14306;49.942;11.570;2023-03-26T16:26:59;96083.50;;;11.95;77.53
1371;BME280;14306;49.942;11.570;2023-03-26T16:29:30;96077.84;;;11.48;78.79
1371;BME280;14306;49.942;11.570;2023-03-26T16:32:24;96086.47;;;11.77;78.65
1371;BME280;14306;49.942;11.570;2023-03-26T16:34:56;96090.94;;;11.70;79.53
1371;BME280;14306;49.942;11.570;2023-03-26T16:37:40;96101.50;;;12.15;77.92
1371;BME280;14306;49.942;11.570;2023-03-26T16:40:29;96104.28;;;12.30;78.08
1371;BME280;14306;49.942;11.570;2023-03-26T16:43:10;96101.41;;;11.83;79.13
1371;BME280;14306;49.942;11.570;2023-03-26T16:45:47;96088.50;;;11.80;80.64
1371;BME280;14306;49.942;11.570;2023-03-26T16:48:24;96078.03;;;12.07;80.49
1371;BME280;14306;49.942;11.570;2023-03-26T16:51:05;96076.53;;;11.81;79.59
1371;BME280;14306;49.942;11.570;2023-03-26T16:53:41;96084.09;;;11.88;78.88
1371;BME280;14306;49.942;11.570;2023-03-26T16:56:16;96092.25;;;11.88;78.73
1371;BME280;14306;49.942;11.570;2023-03-26T16:58:58;96088.19;;;12.10;78.65
1371;BME280;14306;49.942;11.570;2023-03-26T17:01:34;96091.84;;;12.02;79.46
1371;BME280;14306;49.942;11.570;2023-03-26T17:04:11;96093.69;;;11.85;78.21
1371;BME280;14306;49.942;11.570;2023-03-26T17:07:01;96086.34;;;11.86;78.40
1371;BME280;14306;49.942;11.570;2023-03-26T17:09:48;96077.13;;;11.75;77.75
1371;BME280;14306;49.942;11.570;2023-03-26T17:12:28;96069.53;;;11.05;80.94
1371;BME280;14306;49.942;11.570;2023-03-26T17:15:12;96085.59;;;11.73;78.61
1371;BME280;14306;49.942;11.570;2023-03-26T17:18:00;96075.50;;;11.34;79.71
1371;BME280;14306;49.942;11.570;2023-03-26T17:20:35;96082.38;;;11.32;79.82
1371;BME280;14306;49.942;11.570;2023-03-26T17:23:26;96086.09;;;11.27;78.43
1371;BME280;14306;49.942;11.570;2023-03-26T17:26:02;96098.41;;;11.37;78.09
1371;BME280;14306;49.942;11.570;2023-03-26T17:28:50;96087.53;;;11.49;76.61
1371;BME280;14306;49.942;11.570;2023-03-26T17:31:33;96091.28;;;11.44;78.52
1371;BME280;14306;49.942;11.570;2023-03-26T17:37:41;96092.44;;;11.07;79.68
1371;BME280;14306;49.942;11.570;2023-03-26T17:40:43;96087.69;;;11.16;79.05
1371;BME280;14306;49.942;11.570;2023-03-26T17:43:34;96083.53;;;10.83;80.06
1371;BME280;14306;49.942;11.570;2023-03-26T17:46:16;96094.09;;;10.64;81.66
1371;BME280;14306;49.942;11.570;2023-03-26T17:48:53;96089.63;;;10.92;80.82
1371;BME280;14306;49.942;11.570;2023-03-26T17:51:39;96092.69;;;11.02;80.45
1371;BME280;14306;49.942;11.570;2023-03-26T17:54:17;96081.38;;;10.76;80.59
1371;BME280;14306;49.942;11.570;2023-03-26T17:56:49;96082.53;;;10.31;82.33
1371;BME280;14306;49.942;11.570;2023-03-26T17:59:20;96074.78;;;10.41;80.80
1371;BME280;14306;49.942;11.570;2023-03-26T18:01:53;96091.22;;;10.36;80.54
1371;BME280;14306;49.942;11.570;2023-03-26T18:04:31;96095.78;;;10.12;82.36
1371;BME280;14306;49.942;11.570;2023-03-26T18:07:41;96087.88;;;10.07;82.48
1371;BME280;14306;49.942;11.570;2023-03-26T18:10:25;96084.50;;;10.10;82.69
1371;BME280;14306;49.942;11.570;2023-03-26T18:13:18;96090.25;;;10.08;83.21
1371;BME280;14306;49.942;11.570;2023-03-26T18:16:01;96086.41;;;10.09;82.86
1371;BME280;14306;49.942;11.570;2023-03-26T18:18:42;96087.16;;;9.98;83.88
1371;BME280;14306;49.942;11.570;2023-03-26T18:21:19;96085.31;;;9.90;83.83
1371;BME280;14306;49.942;11.570;2023-03-26T18:23:50;96096.03;;;9.98;82.77
1371;BME280;14306;49.942;11.570;2023-03-26T18:26:32;96096.78;;;9.87;83.14
1371;BME280;14306;49.942;11.570;2023-03-26T18:29:14;96086.09;;;9.90;82.88
1371;BME280;14306;49.942;11.570;2023-03-26T18:31:45;96081.16;;;9.72;84.06
1371;BME280;14306;49.942;11.570;2023-03-26T18:34:17;96089.25;;;9.92;83.00
1371;BME280;14306;49.942;11.570;2023-03-26T18:36:58;96094.09;;;9.66;84.24
1371;BME280;14306;49.942;11.570;2023-03-26T18:39:28;96087.28;;;9.60;84.74
1371;BME280;14306;49.942;11.570;2023-03-26T18:41:57;96083.47;;;9.41;84.79
1371;BME280;14306;49.942;11.570;2023-03-26T18:44:26;96075.81;;;9.43;84.51
1371;BME280;14306;49.942;11.570;2023-03-26T18:46:56;96063.44;;;9.42;84.18
1371;BME280;14306;49.942;11.570;2023-03-26T18:49:25;96081.09;;;9.60;82.86
1371;BME280;14306;49.942;11.570;2023-03-26T18:51:57;96073.84;;;9.31;83.59
1371;BME280;14306;49.942;11.570;2023-03-26T18:54:29;96079.91;;;9.49;82.73
1371;BME280;14306;49.942;11.570;2023-03-26T18:57:07;96072.72;;;9.53;83.10
1371;BME280;14306;49.942;11.570;2023-03-26T18:59:42;96068.13;;;9.53;83.27
1371;BME280;14306;49.942;11.570;2023-03-26T19:02:13;96065.59;;;9.48;83.27
1371;BME280;14306;49.942;11.570;2023-03-26T19:04:44;96065.38;;;9.41;83.26
1371;BME280;14306;49.942;11.570;2023-03-26T19:07:19;96050.38;;;9.23;83.99
1371;BME280;14306;49.942;11.570;2023-03-26T19:09:50;96055.72;;;9.11;83.92
1371;BME280;14306;49.942;11.570;2023-03-26T19:12:26;96059.91;;;9.00;84.99
1371;BME280;14306;49.942;11.570;2023-03-26T19:14:57;96065.47;;;8.95;84.38
1371;BME280;14306;49.942;11.570;2023-03-26T19:17:32;96063.69;;;8.79;85.34
1371;BME280;14306;49.942;11.570;2023-03-26T19:20:04;96055.09;;;8.77;85.80
1371;BME280;14306;49.942;11.570;2023-03-26T19:22:37;96051.63;;;8.76;84.76
1371;BME280;14306;49.942;11.570;2023-03-26T19:25:17;96055.63;;;8.70;84.52
1371;BME280;14306;49.942;11.570;2023-03-26T19:27:47;96046.28;;;8.68;82.93
1371;BME280;14306;49.942;11.570;2023-03-26T19:30:27;96052.78;;;8.67;83.79
1371;BME280;14306;49.942;11.570;2023-03-26T19:33:01;96048.81;;;8.64;83.39
1371;BME280;14306;49.942;11.570;2023-03-26T19:35:40;96055.50;;;8.67;83.61
1371;BME280;14306;49.942;11.570;2023-03-26T19:38:25;96059.47;;;8.61;82.73
1371;BME280;14306;49.942;11.570;2023-03-26T19:40:56;96061.28;;;8.48;82.15
1371;BME280;14306;49.942;11.570;2023-03-26T19:43:26;96060.97;;;8.41;82.39
1371;BME280;14306;49.942;11.570;2023-03-26T19:45:57;96065.41;;;8.46;82.60
1371;BME280;14306;49.942;11.570;2023-03-26T19:48:33;96053.38;;;8.43;83.56
1371;BME280;14306;49.942;11.570;2023-03-26T19:51:18;96066.44;;;8.62;83.29
1371;BME280;14306;49.942;11.570;2023-03-26T19:53:51;96074.72;;;8.57;83.86
1371;BME280;14306;49.942;11.570;2023-03-26T19:56:21;96069.59;;;9.01;83.23
1371;BME280;14306;49.942;11.570;2023-03-26T19:58:50;96083.56;;;9.24;82.37
1371;BME280;14306;49.942;11.570;2023-03-26T20:01:20;96074.78;;;9.35;82.92
1371;BME280;14306;49.942;11.570;2023-03-26T20:03:51;96085.84;;;9.63;82.41
1371;BME280;14306;49.942;11.570;2023-03-26T20:06:23;96094.81;;;9.75;82.60
1371;BME280;14306;49.942;11.570;2023-03-26T20:09:11;96091.63;;;9.94;81.91
1371;BME280;14306;49.942;11.570;2023-03-26T20:11:42;96098.53;;;10.24;81.93
1371;BME280;14306;49.942;11.570;2023-03-26T20:14:14;96087.22;;;10.10;81.72
1371;BME280;14306;49.942;11.570;2023-03-26T20:16:43;96117.34;;;10.00;80.88
1371;BME280;14306;49.942;11.570;2023-03-26T20:19:13;96105.53;;;9.43;83.20
1371;BME280;14306;49.942;11.570;2023-03-26T20:21:42;96100.78;;;9.60;82.86
1371;BME280;14306;49.942;11.570;2023-03-26T20:24:15;96101.66;;;9.73;81.82
1371;BME280;14306;49.942;11.570;2023-03-26T20:26:44;96096.84;;;9.99;81.64
1371;BME280;14306;49.942;11.570;2023-03-26T20:29:13;96100.91;;;10.05;81.36
1371;BME280;14306;49.942;11.570;2023-03-26T20:31:42;96101.38;;;9.86;81.89
1371;BME280;14306;49.942;11.570;2023-03-26T20:34:15;96106.03;;;9.65;82.48
1371;BME280;14306;49.942;11.570;2023-03-26T20:36:45;96108.19;;;9.92;82.46
1371;BME280;14306;49.942;11.570;2023-03-26T20:39:15;96109.31;;;9.91;82.49
1371;BME280;14306;49.942;11.570;2023-03-26T20:41:45;96112.16;;;10.15;82.13
1371;BME280;14306;49.942;11.570;2023-03-26T20:44:16;96121.56;;;10.09;81.54
1371;BME280;14306;49.942;11.570;2023-03-26T20:46:45;96119.22;;;9.87;81.69
1371;BME280;14306;49.942;11.570;2023-03-26T20:49:15;96110.81;;;10.01;81.60
1371;BME280;14306;49.942;11.570;2023-03-26T20:51:44;96107.94;;;10.06;80.50
1371;BME280;14306;49.942;11.570;2023-03-26T20:54:19;96104.41;;;9.85;81.97
1371;BME280;14306;49.942;11.570;2023-03-26T20:56:50;96107.94;;;9.85;81.80
1371;BME280;14306;49.942;11.570;2023-03-26T20:59:21;96106.25;;;9.93;81.70
1371;BME280;14306;49.942;11.570;2023-03-26T21:01:53;96108.50;;;9.91;81.56
1371;BME280;14306;49.942;11.570;2023-03-26T21:04:22;96108.53;;;10.11;81.33
1371;BME280;14306;49.942;11.570;2023-03-26T21:06:53;96101.09;;;10.00;81.03
1371;BME280;14306;49.942;11.570;2023-03-26T21:09:39;96099.66;;;10.02;80.94
1371;BME280;14306;49.942;11.570;2023-03-26T21:12:16;96094.72;;;10.04;80.97
1371;BME280;14306;49.942;11.570;2023-03-26T21:14:49;96085.56;;;9.97;81.37
1371;BME280;14306;49.942;11.570;2023-03-26T21:17:22;96086.41;;;9.89;81.49
1371;BME280;14306;49.942;11.570;2023-03-26T21:19:51;96087.75;;;9.62;81.98
1371;BME280;14306;49.942;11.570;2023-03-26T21:22:30;96081.09;;;9.39;82.77
1371;BME280;14306;49.942;11.570;2023-03-26T21:25:12;96102.06;;;9.42;82.72
1371;BME280;14306;49.942;11.570;2023-03-26T21:27:50;96104.63;;;9.59;82.52
1371;BME280;14306;49.942;11.570;2023-03-26T21:30:21;96097.75;;;9.82;82.37
1371;BME280;14306;49.942;11.570;2023-03-26T21:32:51;96111.63;;;9.81;82.37
1371;BME280;14306;49.942;11.570;2023-03-26T21:35:20;96103.97;;;9.62;83.03
1371;BME280;14306;49.942;11.570;2023-03-26T21:37:50;96099.75;;;9.73;83.25
1371;BME280;14306;49.942;11.570;2023-03-26T21:40:21;96098.44;;;9.59;82.97
1371;BME280;14306;49.942;11.570;2023-03-26T21:42:51;96107.72;;;9.90;83.45
1371;BME280;14306;49.942;11.570;2023-03-26T21:45:21;96113.94;;;9.91;82.90
1371;BME280;14306;49.942;11.570;2023-03-26T21:47:50;96114.00;;;9.82;83.09
1371;BME280;14306;49.942;11.570;2023-03-26T21:50:21;96108.84;;;9.48;83.09
1371;BME280;14306;49.942;11.570;2023-03-26T21:52:50;96110.41;;;9.29;83.86
1371;BME280;14306;49.942;11.570;2023-03-26T21:55:22;96116.34;;;8.85;84.99
1371;BME280;14306;49.942;11.570;2023-03-26T21:58:14;96128.16;;;8.80;84.84
1371;BME280;14306;49.942;11.570;2023-03-26T22:00:58;96116.53;;;8.80;84.97
1371;BME280;14306;49.942;11.570;2023-03-26T22:03:36;96107.88;;;9.03;83.87
1371;BME280;14306;49.942;11.570;2023-03-26T22:06:14;96106.09;;;9.07;83.65
1371;BME280;14306;49.942;11.570;2023-03-26T22:08:45;96112.69;;;9.18;85.06
1371;BME280;14306;49.942;11.570;2023-03-26T22:11:15;96121.97;;;9.58;82.85
1371;BME280;14306;49.942;11.570;2023-03-26T22:13:45;96109.84;;;9.64;83.11
1371;BME280;14306;49.942;11.570;2023-03-26T22:16:13;96121.44;;;9.85;82.39
1371;BME280;14306;49.942;11.570;2023-03-26T22:18:42;96110.91;;;9.72;83.29
1371;BME280;14306;49.942;11.570;2023-03-26T22:21:11;96099.50;;;9.87;82.33
1371;BME280;14306;49.942;11.570;2023-03-26T22:23:40;96124.09;;;9.94;82.75
1371;BME280;14306;49.942;11.570;2023-03-26T22:26:08;96128.03;;;9.96;82.13
1371;BME280;14306;49.942;11.570;2023-03-26T22:28:39;96119.69;;;10.10;81.19
1371;BME280;14306;49.942;11.570;2023-03-26T22:31:08;96129.41;;;10.02;82.08
1371;BME280;14306;49.942;11.570;2023-03-26T22:33:37;96109.91;;;9.97;82.78
1371;BME280;14306;49.942;11.570;2023-03-26T22:36:08;96085.66;;;9.68;82.84
1371;BME280;14306;49.942;11.570;2023-03-26T22:38:51;96124.53;;;9.96;83.05
1371;BME280;14306;49.942;11.570;2023-03-26T22:41:21;96125.78;;;9.98;82.62
1371;BME280;14306;49.942;11.570;2023-03-26T22:43:52;96106.09;;;9.77;82.75
1371;BME280;14306;49.942;11.570;2023-03-26T22:46:23;96122.56;;;10.25;82.19
1371;BME280;14306;49.942;11.570;2023-03-26T22:48:52;96104.13;;;10.19;81.38
1371;BME280;14306;49.942;11.570;2023-03-26T22:51:23;96114.44;;;10.05;82.42
1371;BME280;14306;49.942;11.570;2023-03-26T22:53:52;96120.19;;;10.24;82.29
1371;BME280;14306;49.942;11.570;2023-03-26T22:56:20;96127.16;;;10.25;82.61
1371;BME280;14306;49.942;11.570;2023-03-26T22:58:50;96126.47;;;10.48;81.51
1371;BME280;14306;49.942;11.570;2023-03-26T23:01:21;96127.72;;;10.18;82.00
1371;BME280;14306;49.942;11.570;2023-03-26T23:03:50;96132.97;;;10.15;82.94
1371;BME280;14306;49.942;11.570;2023-03-26T23:06:19;96111.81;;;10.17;82.58
1371;BME280;14306;49.942;11.570;2023-03-26T23:08:49;96139.78;;;9.80;82.37
1371;BME280;14306;49.942;11.570;2023-03-26T23:11:19;96133.91;;;10.19;82.31
1371;BME280;14306;49.942;11.570;2023-03-26T23:13:50;96125.78;;;9.98;82.81
1371;BME280;14306;49.942;11.570;2023-03-26T23:16:19;96141.50;;;10.05;83.53
1371;BME280;14306;49.942;11.570;2023-03-26T23:18:49;96159.09;;;10.31;82.21
1371;BME280;14306;49.942;11.570;2023-03-26T23:21:18;96146.56;;;10.27;81.97
1371;BME280;14306;49.942;11.570;2023-03-26T23:23:48;96150.22;;;10.10;82.93
1371;BME280;14306;49.942;11.570;2023-03-26T23:26:17;96148.59;;;10.30;82.70
1371;BME280;14306;49.942;11.570;2023-03-26T23:28:45;96115.50;;;9.92;83.01
1371;BME280;14306;49.942;11.570;2023-03-26T23:31:16;96144.81;;;9.90;83.51
1371;BME280;14306;49.942;11.570;2023-03-26T23:33:45;96150.69;;;10.12;82.76
1371;BME280;14306;49.942;11.570;2023-03-26T23:36:15;96153.41;;;10.04;82.67
1371;BME280;14306;49.942;11.570;2023-03-26T23:38:45;96145.56;;;9.90;82.73
1371;BME280;14306;49.942;11.570;2023-03-26T23:41:16;96167.78;;;9.75;84.17
1371;BME280;14306;49.942;11.570;2023-03-26T23:43:45;96138.19;;;9.79;83.57
1371;BME280;14306;49.942;11.570;2023-03-26T23:46:23;96155.88;;;10.17;83.12
1371;BME280;14306;49.942;11.570;2023-03-26T23:48:56;96155.03;;;10.25;82.67
1371;BME280;14306;49.942;11.570;2023-03-26T23:51:28;96148.94;;;10.28;82.88
1371;BME280;14306;49.942;11.570;2023-03-26T23:53:57;96155.50;;;10.39;82.20
1371;BME280;14306;49.942;11.570;2023-03-26T23:56:27;96137.78;;;10.30;82.14
1371;BME280;14306;49.942;11.570;2023-03-26T23:58:56;96159.44;;;10.09;83.46
